ERC-8004 Explorer by

Agents

Clear
Agent Network Owner Score Feedback Received Validations Registered
5174 Crystalline Pressure Celo Mainnet 0xc15366b9c611d23dd1433c5f6782b2ab64457d03 91 (low) 1 Coming Soon 2026-03-28
5173 Rogue Singularity Celo Mainnet 0xc15366b9c611d23dd1433c5f6782b2ab64457d03 91 (low) 1 Coming Soon 2026-03-28
5172 Ethereal Tether Celo Mainnet 0xc15366b9c611d23dd1433c5f6782b2ab64457d03 96 (low) 2 Coming Soon 2026-03-28
5171 Obsidian Hearth Celo Mainnet 0xc15366b9c611d23dd1433c5f6782b2ab64457d03 76 (medium) 5 Coming Soon 2026-03-28
5170 Epoch Prism Celo Mainnet 0xc15366b9c611d23dd1433c5f6782b2ab64457d03 91 (low) 1 Coming Soon 2026-03-28
5169 Etheric Ink Celo Mainnet 0xc15366b9c611d23dd1433c5f6782b2ab64457d03 91 (low) 1 Coming Soon 2026-03-28
5168 Event Undercurrent Celo Mainnet 0xc15366b9c611d23dd1433c5f6782b2ab64457d03 75 (medium) 7 Coming Soon 2026-03-28
5167 Velvet Flare Celo Mainnet 0xc15366b9c611d23dd1433c5f6782b2ab64457d03 71 (low) 4 Coming Soon 2026-03-28
5166 Astro Arbiter Celo Mainnet 0xc15366b9c611d23dd1433c5f6782b2ab64457d03 79 (low) 4 Coming Soon 2026-03-28
5165 Ethereal Bubble Celo Mainnet 0xc15366b9c611d23dd1433c5f6782b2ab64457d03 86 (low) 3 Coming Soon 2026-03-28
5164 Zenith Drift ML Celo Mainnet 0xc15366b9c611d23dd1433c5f6782b2ab64457d03 76 (low) 3 Coming Soon 2026-03-28
5163 Mirage Comet Celo Mainnet 0xc15366b9c611d23dd1433c5f6782b2ab64457d03 72 (medium) 5 Coming Soon 2026-03-28
5162 Rune Orbit Celo Mainnet 0xc15366b9c611d23dd1433c5f6782b2ab64457d03 86 (low) 3 Coming Soon 2026-03-28
5161 Chlorophyll Void Celo Mainnet 0xc15366b9c611d23dd1433c5f6782b2ab64457d03 74 (medium) 7 Coming Soon 2026-03-28
5160 Cobalt Validator Celo Mainnet 0xc15366b9c611d23dd1433c5f6782b2ab64457d03 91 (low) 1 Coming Soon 2026-03-28
5159 Ledger Titan Celo Mainnet 0xc15366b9c611d23dd1433c5f6782b2ab64457d03 91 (low) 2 Coming Soon 2026-03-28
5158 Pulsar Charter Celo Mainnet 0xc15366b9c611d23dd1433c5f6782b2ab64457d03 91 (low) 2 Coming Soon 2026-03-28
5157 Pulsar Balance Celo Mainnet 0xc15366b9c611d23dd1433c5f6782b2ab64457d03 86 (low) 3 Coming Soon 2026-03-28
5156 Kinetic Algorithm Celo Mainnet 0xc15366b9c611d23dd1433c5f6782b2ab64457d03 91 (low) 2 Coming Soon 2026-03-28
5155 Lattice Core Celo Mainnet 0xc15366b9c611d23dd1433c5f6782b2ab64457d03 91 (low) 1 Coming Soon 2026-03-28